createdAt,value
2024-05-09T00:00:40.068Z,99.90
2024-05-09T00:03:09.267Z,99.90
2024-05-09T00:05:37.577Z,99.90
2024-05-09T00:08:05.074Z,99.90
2024-05-09T00:10:36.705Z,99.90
2024-05-09T00:13:06.778Z,99.90
2024-05-09T00:15:34.504Z,99.90
2024-05-09T00:18:02.432Z,99.90
2024-05-09T00:20:37.517Z,99.90
2024-05-09T00:23:08.721Z,99.90
2024-05-09T00:25:36.403Z,99.90
2024-05-09T00:28:03.624Z,99.90
2024-05-09T00:30:35.142Z,99.90
2024-05-09T00:33:08.858Z,99.90
2024-05-09T00:35:37.211Z,99.90
2024-05-09T00:38:04.737Z,99.90
2024-05-09T00:40:40.006Z,99.90
2024-05-09T00:43:09.892Z,99.90
2024-05-09T00:45:37.548Z,99.90
2024-05-09T00:48:07.478Z,99.90
2024-05-09T00:50:38.548Z,99.90
2024-05-09T00:53:07.779Z,99.90
2024-05-09T00:55:36.521Z,99.90
2024-05-09T00:58:05.877Z,99.90
2024-05-09T01:00:38.905Z,99.90
2024-05-09T01:03:12.715Z,99.90
2024-05-09T01:05:41.946Z,99.90
2024-05-09T01:08:10.497Z,99.90
2024-05-09T01:10:38.248Z,99.90
2024-05-09T01:13:06.283Z,99.90
2024-05-09T01:15:34.756Z,99.90
2024-05-09T01:18:06.891Z,99.90
2024-05-09T01:20:41.114Z,99.90
2024-05-09T01:23:11.185Z,99.90
2024-05-09T01:25:38.359Z,99.90
2024-05-09T01:28:06.635Z,99.90
2024-05-09T01:30:36.096Z,99.90
2024-05-09T01:33:09.690Z,99.90
2024-05-09T01:35:38.944Z,99.90
2024-05-09T01:38:06.981Z,99.90
2024-05-09T01:40:38.541Z,99.90
2024-05-09T01:43:11.605Z,99.90
2024-05-09T01:45:40.695Z,99.90
2024-05-09T01:48:09.080Z,99.90
2024-05-09T01:50:40.245Z,99.90
2024-05-09T01:53:10.581Z,99.90
2024-05-09T01:55:37.716Z,99.90
2024-05-09T01:58:04.885Z,99.90
2024-05-09T02:00:38.831Z,99.90
2024-05-09T02:03:11.539Z,99.90
2024-05-09T02:05:41.616Z,99.90
2024-05-09T02:08:14.757Z,99.90
2024-05-09T02:10:41.885Z,99.90
2024-05-09T02:13:09.408Z,99.90
2024-05-09T02:15:36.515Z,99.90
2024-05-09T02:18:03.691Z,99.90
2024-05-09T02:20:36.144Z,99.90
2024-05-09T02:23:05.991Z,99.90
2024-05-09T02:25:33.323Z,99.90
2024-05-09T02:28:00.296Z,99.90
2024-05-09T02:30:37.752Z,99.90
2024-05-09T02:33:09.542Z,99.90
2024-05-09T02:35:37.858Z,99.90
2024-05-09T02:38:04.975Z,99.90
2024-05-09T02:40:37.154Z,99.90
2024-05-09T02:43:07.888Z,99.90
2024-05-09T02:45:35.254Z,99.90
2024-05-09T02:48:02.588Z,99.90
2024-05-09T02:50:36.973Z,99.90
2024-05-09T02:53:10.646Z,99.90
2024-05-09T02:55:38.652Z,99.90
2024-05-09T02:58:09.367Z,99.90
2024-05-09T03:00:40.604Z,99.90
2024-05-09T03:03:14.673Z,99.90
2024-05-09T03:05:45.722Z,99.90
2024-05-09T03:08:13.216Z,99.90
2024-05-09T03:10:40.404Z,99.90
2024-05-09T03:13:08.638Z,99.90
2024-05-09T03:15:35.905Z,99.90
2024-05-09T03:18:03.799Z,99.90
2024-05-09T03:20:34.665Z,99.90
2024-05-09T03:23:04.148Z,99.90
2024-05-09T03:25:31.347Z,99.90
2024-05-09T03:27:58.217Z,99.90
2024-05-09T03:30:36.659Z,99.90
2024-05-09T03:33:18.034Z,99.90
2024-05-09T03:35:47.042Z,99.90
2024-05-09T03:38:15.102Z,99.90
2024-05-09T03:40:46.694Z,99.90
2024-05-09T03:43:14.286Z,99.90
2024-05-09T03:45:42.475Z,99.90
2024-05-09T03:48:09.598Z,99.90
2024-05-09T03:50:37.465Z,99.90
2024-05-09T03:53:05.224Z,99.90
2024-05-09T03:55:32.438Z,99.90
2024-05-09T03:57:59.561Z,99.90
2024-05-09T04:00:35.026Z,99.90
2024-05-09T04:03:08.540Z,99.90
2024-05-09T04:05:39.564Z,99.90
2024-05-09T04:08:07.041Z,99.90
2024-05-09T04:10:35.103Z,99.90
2024-05-09T04:13:03.505Z,99.90
2024-05-09T04:15:30.993Z,99.90
2024-05-09T04:17:58.121Z,99.90
2024-05-09T04:20:35.866Z,99.90
2024-05-09T04:23:07.715Z,99.90
2024-05-09T04:25:35.306Z,99.90
2024-05-09T04:28:02.398Z,99.90
2024-05-09T04:30:36.960Z,99.90
2024-05-09T04:33:08.925Z,99.90
2024-05-09T04:35:38.564Z,99.90
2024-05-09T04:38:06.238Z,99.90
2024-05-09T04:40:36.082Z,99.90
2024-05-09T04:43:13.740Z,99.90
2024-05-09T04:45:40.882Z,99.90
2024-05-09T04:48:09.477Z,99.90
2024-05-09T04:50:38.929Z,99.90
2024-05-09T04:53:09.478Z,99.90
2024-05-09T04:55:37.652Z,99.90
2024-05-09T04:58:05.530Z,99.90
2024-05-09T05:00:37.072Z,99.90
2024-05-09T05:03:13.249Z,99.90
2024-05-09T05:05:42.767Z,99.90
2024-05-09T05:08:14.132Z,99.90
2024-05-09T05:10:42.380Z,99.90
2024-05-09T05:13:17.674Z,99.90
2024-05-09T05:15:46.403Z,99.90
2024-05-09T05:18:14.886Z,99.90
2024-05-09T05:20:42.429Z,99.90
2024-05-09T05:23:14.902Z,99.90
2024-05-09T05:25:43.034Z,99.90
2024-05-09T05:28:10.706Z,99.90
2024-05-09T05:30:38.402Z,99.90
2024-05-09T05:33:06.700Z,99.90
2024-05-09T05:35:34.701Z,99.90
2024-05-09T05:38:02.166Z,99.90
2024-05-09T05:40:36.301Z,99.90
2024-05-09T05:43:09.888Z,99.90
2024-05-09T05:45:37.433Z,99.90
2024-05-09T05:48:06.051Z,99.90
2024-05-09T05:50:36.681Z,99.90
2024-05-09T05:53:07.515Z,99.90
2024-05-09T05:55:44.686Z,99.90
2024-05-09T05:58:12.490Z,99.90
2024-05-09T06:00:41.954Z,99.90
2024-05-09T06:03:11.446Z,99.90
2024-05-09T06:05:44.201Z,99.90
2024-05-09T06:08:11.691Z,99.90
2024-05-09T06:10:40.697Z,99.90
2024-05-09T06:13:11.389Z,99.90
2024-05-09T06:15:39.299Z,99.90
2024-05-09T06:18:07.410Z,99.90
2024-05-09T06:20:37.272Z,99.90
2024-05-09T06:23:09.522Z,99.90
2024-05-09T06:25:37.218Z,99.90
2024-05-09T06:28:05.119Z,99.90
2024-05-09T06:30:38.795Z,99.90
2024-05-09T06:33:10.834Z,99.90
2024-05-09T06:35:39.728Z,99.90
2024-05-09T06:38:09.245Z,99.90
2024-05-09T06:40:39.449Z,99.90
2024-05-09T06:43:12.012Z,99.90
2024-05-09T06:45:39.984Z,99.90
2024-05-09T06:48:08.233Z,99.90
2024-05-09T06:50:38.078Z,99.90
2024-05-09T06:53:06.847Z,99.90
2024-05-09T06:55:33.770Z,99.90
2024-05-09T06:58:00.682Z,99.90
2024-05-09T07:00:35.650Z,99.90
2024-05-09T07:03:19.364Z,99.90
2024-05-09T07:05:48.366Z,99.90
2024-05-09T07:08:16.562Z,99.60
2024-05-09T07:10:43.849Z,98.80
2024-05-09T07:13:12.362Z,98.30
2024-05-09T07:15:39.921Z,99.00
2024-05-09T07:18:11.927Z,98.40
2024-05-09T07:20:40.117Z,98.80
2024-05-09T07:23:10.916Z,98.50
2024-05-09T07:25:38.500Z,97.80
2024-05-09T07:28:06.574Z,97.70
2024-05-09T07:30:34.740Z,98.40
2024-05-09T07:33:03.876Z,97.60
2024-05-09T07:35:31.362Z,96.40
2024-05-09T07:37:58.662Z,97.00
2024-05-09T07:40:33.074Z,95.10
2024-05-09T07:43:04.302Z,93.50
2024-05-09T07:45:47.991Z,92.80
2024-05-09T07:53:39.323Z,88.10
2024-05-09T07:56:10.250Z,88.20
2024-05-09T07:58:38.532Z,89.40
2024-05-09T08:01:06.140Z,85.60
2024-05-09T08:03:34.432Z,87.40
2024-05-09T08:06:01.678Z,86.50
2024-05-09T08:08:28.602Z,85.90
2024-05-09T08:10:55.551Z,87.80
2024-05-09T08:13:22.766Z,88.90
2024-05-09T08:15:49.961Z,86.70
2024-05-09T08:18:17.799Z,85.10
2024-05-09T08:20:48.357Z,86.30
2024-05-09T08:23:15.224Z,85.20
2024-05-09T08:25:42.044Z,82.50
2024-05-09T08:28:09.465Z,84.20
2024-05-09T08:30:38.069Z,82.80
2024-05-09T08:33:06.946Z,81.50
2024-05-09T08:35:34.858Z,81.60
2024-05-09T08:38:07.025Z,82.50
2024-05-09T08:40:36.662Z,82.70
2024-05-09T08:43:10.725Z,83.00
2024-05-09T08:45:44.677Z,80.20
2024-05-09T08:48:15.303Z,80.20
2024-05-09T08:50:44.210Z,82.90
2024-05-09T08:53:12.036Z,83.40
2024-05-09T08:55:42.799Z,81.60
2024-05-09T08:58:15.583Z,82.00
2024-05-09T09:00:45.317Z,82.30
2024-05-09T09:03:19.067Z,81.30
2024-05-09T09:06:11.688Z,81.50
2024-05-09T09:08:39.312Z,80.50
2024-05-09T09:11:06.226Z,81.00
2024-05-09T09:13:33.098Z,80.40
2024-05-09T09:16:01.022Z,80.80
2024-05-09T09:18:29.302Z,82.40
2024-05-09T09:20:56.445Z,84.50
2024-05-09T09:23:23.271Z,84.30
2024-05-09T09:25:50.558Z,84.00
2024-05-09T09:28:17.686Z,83.70
2024-05-09T09:30:45.670Z,84.20
2024-05-09T09:33:12.667Z,84.30
2024-05-09T09:35:42.188Z,82.70
2024-05-09T09:38:10.665Z,83.20
2024-05-09T09:40:45.048Z,84.10
2024-05-09T09:43:23.078Z,82.90
2024-05-09T09:45:52.907Z,83.30
2024-05-09T09:48:21.382Z,85.20
2024-05-09T09:50:51.074Z,86.50
2024-05-09T09:53:19.217Z,85.20
2024-05-09T09:55:46.942Z,84.40
2024-05-09T09:58:17.089Z,83.80
2024-05-09T10:00:44.934Z,84.80
2024-05-09T10:03:12.435Z,83.10
2024-05-09T10:05:42.201Z,85.00
2024-05-09T10:08:12.366Z,86.20
2024-05-09T10:10:39.787Z,84.70
2024-05-09T10:13:07.567Z,84.00
2024-05-09T10:15:51.641Z,84.10
2024-05-09T10:18:29.124Z,85.40
2024-05-09T10:20:57.942Z,85.70
2024-05-09T10:23:36.221Z,83.40
2024-05-09T10:26:06.488Z,80.90
2024-05-09T10:28:36.788Z,80.80
2024-05-09T10:31:15.252Z,80.90
2024-05-09T10:33:48.137Z,80.50
2024-05-09T10:36:18.885Z,80.70
2024-05-09T10:38:45.812Z,81.00
2024-05-09T10:41:12.776Z,78.90
2024-05-09T10:43:43.543Z,80.20
2024-05-09T10:46:11.502Z,80.30
2024-05-09T10:48:39.668Z,80.70
2024-05-09T10:51:06.763Z,81.20
2024-05-09T10:53:44.576Z,81.90
2024-05-09T10:56:13.382Z,81.40
2024-05-09T10:58:40.472Z,81.00
2024-05-09T11:01:09.077Z,81.10
2024-05-09T11:03:37.016Z,81.50
2024-05-09T11:06:05.353Z,80.70
2024-05-09T11:08:34.902Z,79.90
2024-05-09T11:11:06.488Z,79.30
2024-05-09T11:13:36.106Z,75.60
2024-05-09T11:16:04.403Z,76.90
2024-05-09T11:18:36.210Z,77.90
2024-05-09T11:21:13.349Z,79.80
2024-05-09T11:23:40.896Z,78.50
2024-05-09T11:26:09.038Z,77.30
2024-05-09T11:28:36.104Z,75.40
2024-05-09T11:31:08.824Z,76.80
2024-05-09T11:33:41.337Z,76.80
2024-05-09T11:36:09.431Z,77.30
2024-05-09T11:38:36.721Z,77.60
2024-05-09T11:41:04.931Z,78.30
2024-05-09T11:43:32.106Z,79.00
2024-05-09T11:45:59.357Z,77.70
2024-05-09T11:48:26.801Z,77.10
2024-05-09T11:50:55.310Z,76.30
2024-05-09T11:53:22.488Z,76.20
2024-05-09T11:55:49.564Z,75.90
2024-05-09T11:58:18.146Z,76.90
2024-05-09T12:00:46.582Z,74.70
2024-05-09T12:03:13.901Z,76.60
2024-05-09T12:05:41.418Z,76.40
2024-05-09T12:08:08.375Z,73.00
2024-05-09T12:10:36.644Z,74.70
2024-05-09T12:13:05.970Z,77.90
2024-05-09T12:15:36.282Z,78.60
2024-05-09T12:18:04.726Z,78.80
2024-05-09T12:20:37.308Z,77.70
2024-05-09T12:23:06.918Z,77.60
2024-05-09T12:25:34.212Z,77.10
2024-05-09T12:28:01.378Z,76.70
2024-05-09T12:30:36.147Z,77.30
2024-05-09T12:33:14.010Z,77.40
2024-05-09T12:35:44.368Z,77.00
2024-05-09T12:38:14.380Z,76.90
2024-05-09T12:40:42.098Z,77.40
2024-05-09T12:43:10.392Z,77.70
2024-05-09T12:45:39.363Z,76.70
2024-05-09T12:48:11.356Z,75.80
2024-05-09T12:50:39.264Z,76.20
2024-05-09T12:53:06.125Z,75.50
2024-05-09T12:55:41.303Z,75.10
2024-05-09T12:58:16.391Z,74.50
2024-05-09T13:00:44.041Z,73.70
2024-05-09T13:03:11.158Z,72.60
2024-05-09T13:05:41.003Z,73.30
2024-05-09T13:08:08.175Z,73.50
2024-05-09T13:10:35.065Z,72.60
2024-05-09T13:13:02.428Z,72.10
2024-05-09T13:15:31.186Z,71.20
2024-05-09T13:18:01.989Z,73.10
2024-05-09T13:20:33.808Z,72.30
2024-05-09T13:23:04.990Z,72.90
2024-05-09T13:25:34.356Z,72.80
2024-05-09T13:28:01.510Z,71.80
2024-05-09T13:30:37.361Z,72.20
2024-05-09T13:33:07.506Z,71.40
2024-05-09T13:35:35.671Z,70.80
2024-05-09T13:38:03.919Z,70.30
2024-05-09T13:40:34.561Z,71.90
2024-05-09T13:43:05.992Z,72.70
2024-05-09T13:45:33.648Z,71.80
2024-05-09T13:48:02.121Z,72.10
2024-05-09T13:50:34.614Z,71.00
2024-05-09T13:53:05.790Z,69.60
2024-05-09T13:55:33.847Z,68.70
2024-05-09T13:58:01.246Z,69.50
2024-05-09T14:00:41.663Z,70.20
2024-05-09T14:03:14.589Z,71.90
2024-05-09T14:05:42.111Z,71.90
2024-05-09T14:08:09.351Z,72.30
2024-05-09T14:10:43.132Z,72.30
2024-05-09T14:13:10.296Z,73.70
2024-05-09T14:15:37.637Z,72.90
2024-05-09T14:18:04.795Z,72.80
2024-05-09T14:20:32.577Z,73.30
2024-05-09T14:23:00.875Z,72.50
2024-05-09T14:25:35.090Z,73.40
2024-05-09T14:28:04.026Z,72.90
2024-05-09T14:30:36.667Z,73.70
2024-05-09T14:33:06.381Z,73.50
2024-05-09T14:35:34.389Z,72.50
2024-05-09T14:38:01.408Z,73.00
2024-05-09T14:40:39.325Z,72.70
2024-05-09T14:43:14.123Z,72.40
2024-05-09T14:45:41.945Z,73.10
2024-05-09T14:48:09.594Z,72.10
2024-05-09T14:50:39.232Z,72.30
2024-05-09T14:53:08.519Z,71.20
2024-05-09T14:55:37.700Z,70.40
2024-05-09T14:58:09.709Z,70.30
2024-05-09T15:00:45.980Z,69.80
2024-05-09T15:03:20.088Z,70.40
2024-05-09T15:05:48.036Z,69.20
2024-05-09T15:08:17.494Z,70.70
2024-05-09T15:10:44.624Z,71.10
2024-05-09T15:13:13.471Z,70.70
2024-05-09T15:15:42.634Z,71.80
2024-05-09T15:18:09.776Z,71.90
2024-05-09T15:20:37.901Z,72.30
2024-05-09T15:23:06.834Z,72.50
2024-05-09T15:25:34.722Z,72.70
2024-05-09T15:28:01.845Z,72.00
2024-05-09T15:30:32.104Z,72.30
2024-05-09T15:33:03.267Z,71.60
2024-05-09T15:35:30.475Z,71.40
2024-05-09T15:37:58.368Z,71.90
2024-05-09T15:40:31.622Z,72.90
2024-05-09T15:43:06.185Z,72.80
2024-05-09T15:45:34.227Z,73.20
2024-05-09T15:48:02.618Z,73.00
2024-05-09T15:50:36.992Z,74.20
2024-05-09T15:53:08.125Z,73.70
2024-05-09T15:55:35.964Z,73.80
2024-05-09T15:58:04.049Z,74.30
2024-05-09T16:00:37.978Z,72.30
2024-05-09T16:03:13.433Z,72.40
2024-05-09T16:05:43.284Z,72.70
2024-05-09T16:08:11.501Z,72.20
2024-05-09T16:10:43.419Z,72.10
2024-05-09T16:13:12.455Z,73.50
2024-05-09T16:15:39.752Z,72.90
2024-05-09T16:18:07.107Z,73.00
2024-05-09T16:20:39.560Z,74.00
2024-05-09T16:23:09.072Z,72.70
2024-05-09T16:25:36.919Z,72.70
2024-05-09T16:28:08.494Z,73.50
2024-05-09T16:30:40.439Z,73.30
2024-05-09T16:33:08.601Z,73.90
2024-05-09T16:35:36.994Z,72.90
2024-05-09T16:38:04.356Z,72.50
2024-05-09T16:40:38.001Z,73.20
2024-05-09T16:43:11.586Z,73.00
2024-05-09T16:45:40.465Z,72.80
2024-05-09T16:48:08.399Z,72.60
2024-05-09T16:50:36.465Z,72.40
2024-05-09T16:53:05.667Z,72.40
2024-05-09T16:55:33.432Z,73.00
2024-05-09T16:58:01.052Z,72.60
2024-05-09T17:00:38.480Z,72.80
2024-05-09T17:03:12.484Z,73.80
2024-05-09T17:05:40.647Z,73.50
2024-05-09T17:08:08.465Z,73.40
2024-05-09T17:10:39.127Z,73.60
2024-05-09T17:13:07.633Z,74.10
2024-05-09T17:15:36.911Z,74.20
2024-05-09T17:18:06.214Z,74.50
2024-05-09T17:20:36.240Z,75.20
2024-05-09T17:23:06.003Z,75.50
2024-05-09T17:25:33.682Z,76.00
2024-05-09T17:28:07.132Z,76.40
2024-05-09T17:30:37.794Z,77.20
2024-05-09T17:33:08.407Z,76.90
2024-05-09T17:35:36.821Z,77.40
2024-05-09T17:38:05.249Z,76.60
2024-05-09T17:40:35.790Z,77.20
2024-05-09T17:43:05.574Z,77.30
2024-05-09T17:45:33.320Z,78.30
2024-05-09T17:48:01.344Z,78.40
2024-05-09T17:50:35.121Z,78.70
2024-05-09T17:53:08.010Z,79.40
2024-05-09T17:55:35.736Z,79.70
2024-05-09T17:58:04.082Z,79.90
2024-05-09T18:00:38.017Z,80.30
2024-05-09T18:03:12.022Z,80.70
2024-05-09T18:05:40.427Z,80.80
2024-05-09T18:08:08.137Z,80.60
2024-05-09T18:10:38.554Z,80.90
2024-05-09T18:13:11.436Z,81.10
2024-05-09T18:15:39.807Z,81.50
2024-05-09T18:18:07.964Z,82.30
2024-05-09T18:20:42.274Z,82.60
2024-05-09T18:23:14.191Z,83.00
2024-05-09T18:25:42.037Z,83.50
2024-05-09T18:28:09.162Z,83.00
2024-05-09T18:30:37.336Z,82.70
2024-05-09T18:33:06.843Z,82.80
2024-05-09T18:35:35.247Z,83.20
2024-05-09T18:38:02.881Z,83.40
2024-05-09T18:40:34.448Z,83.20
2024-05-09T18:43:06.139Z,83.60
2024-05-09T18:45:34.743Z,83.70
2024-05-09T18:48:01.794Z,83.70
2024-05-09T18:50:35.135Z,83.80
2024-05-09T18:53:10.172Z,84.00
2024-05-09T18:55:37.559Z,84.20
2024-05-09T18:58:05.056Z,84.10
2024-05-09T19:00:36.256Z,84.30
2024-05-09T19:03:11.403Z,84.60
2024-05-09T19:05:40.984Z,84.80
2024-05-09T19:08:09.008Z,85.00
2024-05-09T19:10:38.441Z,84.80
2024-05-09T19:13:10.172Z,85.50
2024-05-09T19:15:40.090Z,85.50
2024-05-09T19:18:07.872Z,85.70
2024-05-09T19:20:36.550Z,86.00
2024-05-09T19:23:05.753Z,86.10
2024-05-09T19:25:33.349Z,86.90
2024-05-09T19:28:01.218Z,88.10
2024-05-09T19:30:37.571Z,88.80
2024-05-09T19:33:09.215Z,89.30
2024-05-09T19:35:36.810Z,90.00
2024-05-09T19:38:04.276Z,90.40
2024-05-09T19:40:33.619Z,90.40
2024-05-09T19:43:03.191Z,91.50
2024-05-09T19:45:32.193Z,91.70
2024-05-09T19:47:59.289Z,92.10
2024-05-09T19:50:32.797Z,92.50
2024-05-09T19:53:07.857Z,93.10
2024-05-09T19:55:34.853Z,93.50
2024-05-09T19:58:07.088Z,93.80
2024-05-09T20:00:37.902Z,93.50
2024-05-09T20:03:07.495Z,93.90
2024-05-09T20:05:35.179Z,94.00
2024-05-09T20:08:02.461Z,93.80
2024-05-09T20:10:32.743Z,94.10
2024-05-09T20:13:02.633Z,94.10
2024-05-09T20:15:31.139Z,94.20
2024-05-09T20:17:58.257Z,94.30
2024-05-09T20:20:33.692Z,94.50
2024-05-09T20:23:08.514Z,94.60
2024-05-09T20:25:35.439Z,94.70
2024-05-09T20:28:02.989Z,95.40
2024-05-09T20:30:32.900Z,95.30
2024-05-09T20:33:07.187Z,95.60
2024-05-09T20:35:35.528Z,95.60
2024-05-09T20:38:03.384Z,95.10
2024-05-09T20:40:35.404Z,94.50
2024-05-09T20:43:06.457Z,93.90
2024-05-09T20:45:33.951Z,93.80
2024-05-09T20:48:01.539Z,93.60
2024-05-09T20:50:36.728Z,93.20
2024-05-09T20:53:15.347Z,93.30
2024-05-09T20:55:45.791Z,93.60
2024-05-09T20:58:13.224Z,93.60
2024-05-09T21:00:43.720Z,93.80
2024-05-09T21:03:14.969Z,93.30
2024-05-09T21:05:43.277Z,93.40
2024-05-09T21:08:10.319Z,93.30
2024-05-09T21:10:37.812Z,93.50
2024-05-09T21:13:06.284Z,93.10
2024-05-09T21:15:34.234Z,93.20
2024-05-09T21:18:01.315Z,93.40
2024-05-09T21:20:31.857Z,93.00
2024-05-09T21:23:03.714Z,93.30
2024-05-09T21:25:31.106Z,93.60
2024-05-09T21:27:58.558Z,93.30
2024-05-09T21:30:38.249Z,93.40
2024-05-09T21:33:10.239Z,93.50
2024-05-09T21:35:38.640Z,93.80
2024-05-09T21:38:05.764Z,94.00
2024-05-09T21:40:35.659Z,94.10
2024-05-09T21:43:04.762Z,94.30
2024-05-09T21:45:32.222Z,95.10
2024-05-09T21:47:59.337Z,95.70
2024-05-09T21:50:36.114Z,96.30
2024-05-09T21:53:07.284Z,96.70
2024-05-09T21:55:34.487Z,96.90
2024-05-09T21:58:01.606Z,97.00
2024-05-09T22:00:35.489Z,97.10
2024-05-09T22:03:06.061Z,97.40
2024-05-09T22:05:33.283Z,97.60
2024-05-09T22:08:00.425Z,97.90
2024-05-09T22:10:33.702Z,98.00
2024-05-09T22:13:04.011Z,98.00
2024-05-09T22:15:35.252Z,98.00
2024-05-09T22:18:02.557Z,98.50
2024-05-09T22:20:36.447Z,99.20
2024-05-09T22:23:05.750Z,99.50
2024-05-09T22:25:33.048Z,99.60
2024-05-09T22:28:01.723Z,99.60
2024-05-09T22:30:35.792Z,99.90
2024-05-09T22:33:07.299Z,99.40
2024-05-09T22:35:34.463Z,99.40
2024-05-09T22:38:02.826Z,99.10
2024-05-09T22:40:38.917Z,99.00
2024-05-09T22:43:16.333Z,98.80
2024-05-09T22:45:43.354Z,98.40
2024-05-09T22:48:10.819Z,98.50
2024-05-09T22:50:37.729Z,98.30
2024-05-09T22:53:05.514Z,98.60
2024-05-09T22:55:32.458Z,98.30
2024-05-09T22:57:59.346Z,98.20
2024-05-09T23:00:31.411Z,98.10
2024-05-09T23:03:03.317Z,98.50
2024-05-09T23:05:32.082Z,98.20
2024-05-09T23:08:00.341Z,98.20
2024-05-09T23:10:32.532Z,98.10
2024-05-09T23:13:03.920Z,98.30
2024-05-09T23:15:31.149Z,98.40
2024-05-09T23:17:58.659Z,98.50
2024-05-09T23:20:35.887Z,98.40
2024-05-09T23:23:10.403Z,98.80
2024-05-09T23:25:38.391Z,98.50
2024-05-09T23:28:05.662Z,98.60
2024-05-09T23:30:37.823Z,98.70
2024-05-09T23:33:08.109Z,98.60
2024-05-09T23:35:35.398Z,98.70
2024-05-09T23:38:02.271Z,98.70
2024-05-09T23:42:59.020Z,98.50
2024-05-09T23:45:26.351Z,98.30
2024-05-09T23:47:53.822Z,98.10
2024-05-09T23:50:26.754Z,98.20
2024-05-09T23:53:00.674Z,98.00
2024-05-09T23:55:28.588Z,97.80
2024-05-09T23:57:55.549Z,98.00
